Terminal Aerodrome Forecast
Issued by NWS Atlanta, GA

Home | Current Version | Previous Version | Text Only | Print | Product List | Glossary On
Versions: 1 2 3 4 5 6 7 8 9 10 11 12 13 14 15 16 17 18 19 20 21 22 23 24 25 26 27 28 29 30 31 32 33 34 35 36 37
000
FTAK31 PAJN 041200 AAA
TAFAHN
TAF AMD
PAHN 041300Z 0413/0512 VRB03KT 5SM -RA BR OVC005
     FM041500 09006KT 5SM -RA BR SCT005 OVC020
     FM041700 31008KT 6SM -RA SCT015 OVC040
     FM042100 31008KT 4SM -RA SCT010 OVC025
     FM050500 31010KT P6SM VCSH SCT015 OVC030
      AMD LTD TO CLD VIS AND WIND=

USA.gov is the U.S. government's official web portal to all federal, state and local government web resources and services.